This is the latest recevied weather packets stored in our database for station/object DL6ABE-13. If no packets are shown the sender has not sent any weather packets the latest 10 day(s).
| Time | Temp. | Humidity | Pressure | Rain* | Wind** | Luminosity | Snow |
|---|---|---|---|---|---|---|---|
| 1777680746 | 13.33° C | 59% | 1018.4 hPa | - | - | - | - |
| 1777680145 | 13.33° C | 58% | 1018.5 hPa | - | - | - | - |
| 1777679544 | 13.89° C | 56% | 1018.4 hPa | - | - | - | - |
| 1777678340 | 14.44° C | 53% | 1018.3 hPa | - | - | - | - |
| 1777677758 | 14.44° C | 52% | 1018.5 hPa | - | - | - | - |
| 1777677134 | 15° C | 52% | 1018.4 hPa | - | - | - | - |
| 1777670514 | 14.44° C | 59% | 1018.4 hPa | - | - | - | - |
| 1777669913 | 14.44° C | 60% | 1018.3 hPa | - | - | - | - |
| 1777667502 | 16.11° C | 53% | 1018.3 hPa | - | - | - | - |
| 1777663892 | 18.33° C | 44% | 1018 hPa | - | - | - | - |
| 1777663312 | 18.89° C | 43% | 1018 hPa | - | - | - | - |
| 1777662688 | 19.44° C | 42% | 1018 hPa | - | - | - | - |
| 1777660882 | 21.11° C | 37% | 1017.7 hPa | - | - | - | - |
| 1777659702 | 22.22° C | 35% | 1017.6 hPa | - | - | - | - |
| 1777658473 | 22.78° C | 33% | 1017.6 hPa | - | - | - | - |
| 1777651848 | 24.44° C | 33% | 1017.7 hPa | - | - | - | - |
| 1777650045 | 24.44° C | 32% | 1018 hPa | - | - | - | - |
| 1777648261 | 23.89° C | 32% | 1018.3 hPa | - | - | - | - |
| 1777642219 | 22.78° C | 32% | 1019.5 hPa | - | - | - | - |
| 1777641019 | 22.22° C | 33% | 1019.7 hPa | - | - | - | - |
| 1777639814 | 21.67° C | 34% | 1019.8 hPa | - | - | - | - |
| 1777639210 | 21.67° C | 35% | 1020 hPa | - | - | - | - |
| 1777636222 | 20° C | 36% | 1020.5 hPa | - | - | - | - |
| 1777635016 | 20° C | 38% | 1020.8 hPa | - | - | - | - |
| 1777631984 | 18.33° C | 40% | 1021.4 hPa | - | - | - | - |
* Rain since midnight (hover to see other rain measurements)
** Current wind speed in m/s (hover to see current wind gust speed)